sensor_id;sensor_type;location;lat;lon;timestamp;pressure;altitude;pressure_sealevel;temperature;humidity
40075;BME280;26529;51.530;11.754;2023-05-02T00:00:12;99954.31;;;19.85;45.56
40075;BME280;26529;51.530;11.754;2023-05-02T00:02:38;99949.00;;;19.85;45.43
40075;BME280;26529;51.530;11.754;2023-05-02T00:05:05;99954.31;;;19.85;45.58
40075;BME280;26529;51.530;11.754;2023-05-02T00:07:31;99951.66;;;19.85;45.48
40075;BME280;26529;51.530;11.754;2023-05-02T00:09:56;99950.69;;;19.86;45.38
40075;BME280;26529;51.530;11.754;2023-05-02T00:12:21;99956.25;;;19.83;45.54
40075;BME280;26529;51.530;11.754;2023-05-02T00:14:47;99956.97;;;19.85;45.54
40075;BME280;26529;51.530;11.754;2023-05-02T00:17:16;99950.78;;;19.84;45.43
40075;BME280;26529;51.530;11.754;2023-05-02T00:19:42;99949.00;;;19.85;45.42
40075;BME280;26529;51.530;11.754;2023-05-02T00:22:08;99945.38;;;19.86;45.40
40075;BME280;26529;51.530;11.754;2023-05-02T00:24:33;99947.28;;;19.84;45.51
40075;BME280;26529;51.530;11.754;2023-05-02T00:26:59;99948.13;;;19.84;45.52
40075;BME280;26529;51.530;11.754;2023-05-02T00:29:24;99945.59;;;19.83;45.53
40075;BME280;26529;51.530;11.754;2023-05-02T00:31:50;99947.28;;;19.84;45.40
40075;BME280;26529;51.530;11.754;2023-05-02T00:34:15;99949.00;;;19.85;45.37
40075;BME280;26529;51.530;11.754;2023-05-02T00:36:41;99947.28;;;19.84;45.56
40075;BME280;26529;51.530;11.754;2023-05-02T00:39:06;99949.19;;;19.82;45.64
40075;BME280;26529;51.530;11.754;2023-05-02T00:41:32;99947.28;;;19.84;45.53
40075;BME280;26529;51.530;11.754;2023-05-02T00:43:58;99957.94;;;19.84;45.60
40075;BME280;26529;51.530;11.754;2023-05-02T00:46:23;99957.94;;;19.84;45.44
40075;BME280;26529;51.530;11.754;2023-05-02T00:48:49;99956.25;;;19.83;45.50
40075;BME280;26529;51.530;11.754;2023-05-02T00:51:15;99952.63;;;19.84;45.63
40075;BME280;26529;51.530;11.754;2023-05-02T00:53:41;99943.88;;;19.82;45.47
40075;BME280;26529;51.530;11.754;2023-05-02T00:56:07;99950.06;;;19.82;45.44
40075;BME280;26529;51.530;11.754;2023-05-02T00:58:33;99950.91;;;19.83;45.51
40075;BME280;26529;51.530;11.754;2023-05-02T01:06:38;99955.28;;;19.84;45.44
40075;BME280;26529;51.530;11.754;2023-05-02T01:12:03;99952.72;;;19.82;45.51
40075;BME280;26529;51.530;11.754;2023-05-02T01:14:34;99957.94;;;19.84;45.53
40075;BME280;26529;51.530;11.754;2023-05-02T01:17:04;99959.00;;;19.81;45.51
40075;BME280;26529;51.530;11.754;2023-05-02T01:19:42;99966.88;;;19.83;45.25
40075;BME280;26529;51.530;11.754;2023-05-02T01:22:10;99966.88;;;19.83;45.67
40075;BME280;26529;51.530;11.754;2023-05-02T01:24:53;99972.19;;;19.83;45.48
40075;BME280;26529;51.530;11.754;2023-05-02T01:27:35;99980.19;;;19.83;45.49
40075;BME280;26529;51.530;11.754;2023-05-02T01:30:06;99975.78;;;19.82;45.55
40075;BME280;26529;51.530;11.754;2023-05-02T01:32:34;99975.78;;;19.82;45.56
40075;BME280;26529;51.530;11.754;2023-05-02T01:35:03;99981.97;;;19.82;45.62
40075;BME280;26529;51.530;11.754;2023-05-02T01:37:31;99983.78;;;19.82;45.53
40075;BME280;26529;51.530;11.754;2023-05-02T01:39:59;99987.41;;;19.80;45.67
40075;BME280;26529;51.530;11.754;2023-05-02T01:42:28;99990.06;;;19.80;45.38
40075;BME280;26529;51.530;11.754;2023-05-02T01:44:54;99990.94;;;19.81;45.49
40075;BME280;26529;51.530;11.754;2023-05-02T01:47:21;99992.72;;;19.80;45.48
40075;BME280;26529;51.530;11.754;2023-05-02T01:49:49;99992.72;;;19.80;45.33
40075;BME280;26529;51.530;11.754;2023-05-02T01:52:15;99997.09;;;19.82;45.76
40075;BME280;26529;51.530;11.754;2023-05-02T01:54:42;100002.41;;;19.82;45.49
40075;BME280;26529;51.530;11.754;2023-05-02T01:57:09;100008.69;;;19.80;45.54
40075;BME280;26529;51.530;11.754;2023-05-02T01:59:36;100016.66;;;19.80;45.59
40075;BME280;26529;51.530;11.754;2023-05-02T02:02:04;100015.69;;;19.82;45.45
40075;BME280;26529;51.530;11.754;2023-05-02T02:04:31;100020.09;;;19.83;45.60
40075;BME280;26529;51.530;11.754;2023-05-02T02:07:07;100023.81;;;19.80;45.56
40075;BME280;26529;51.530;11.754;2023-05-02T02:09:34;100030.94;;;19.79;45.43
40075;BME280;26529;51.530;11.754;2023-05-02T02:12:23;100027.31;;;19.80;45.39
40075;BME280;26529;51.530;11.754;2023-05-02T02:14:56;100039.66;;;19.82;45.42
40075;BME280;26529;51.530;11.754;2023-05-02T02:20:22;100045.09;;;19.80;45.39
40075;BME280;26529;51.530;11.754;2023-05-02T02:22:48;100047.63;;;19.82;45.47
40075;BME280;26529;51.530;11.754;2023-05-02T02:25:15;100046.91;;;19.79;45.58
40075;BME280;26529;51.530;11.754;2023-05-02T02:27:42;100053.91;;;19.80;45.61
40075;BME280;26529;51.530;11.754;2023-05-02T02:30:08;100053.91;;;19.80;45.38
40075;BME280;26529;51.530;11.754;2023-05-02T02:32:34;100054.88;;;19.79;45.64
40075;BME280;26529;51.530;11.754;2023-05-02T02:35:00;100054.03;;;19.79;45.32
40075;BME280;26529;51.530;11.754;2023-05-02T02:37:30;100058.41;;;19.80;45.54
40075;BME280;26529;51.530;11.754;2023-05-02T02:45:26;100058.50;;;19.78;45.62
40075;BME280;26529;51.530;11.754;2023-05-02T02:51:06;100056.56;;;19.80;45.48
40075;BME280;26529;51.530;11.754;2023-05-02T02:54:00;100055.84;;;19.78;45.54
40075;BME280;26529;51.530;11.754;2023-05-02T02:56:38;100068.19;;;19.79;45.68
40075;BME280;26529;51.530;11.754;2023-05-02T02:59:26;100062.03;;;19.79;45.58
40075;BME280;26529;51.530;11.754;2023-05-02T03:02:06;100063.81;;;19.78;45.38
40075;BME280;26529;51.530;11.754;2023-05-02T03:04:40;100071.91;;;19.77;45.53
40075;BME280;26529;51.530;11.754;2023-05-02T03:07:09;100073.50;;;19.79;45.61
40075;BME280;26529;51.530;11.754;2023-05-02T03:09:45;100077.97;;;19.79;45.34
40075;BME280;26529;51.530;11.754;2023-05-02T03:12:15;100087.75;;;19.78;45.53
40075;BME280;26529;51.530;11.754;2023-05-02T03:14:42;100087.75;;;19.78;45.56
40075;BME280;26529;51.530;11.754;2023-05-02T03:17:07;100093.09;;;19.78;45.45
40075;BME280;26529;51.530;11.754;2023-05-02T03:19:34;100102.03;;;19.77;45.58
40075;BME280;26529;51.530;11.754;2023-05-02T03:22:00;100100.09;;;19.79;45.58
40075;BME280;26529;51.530;11.754;2023-05-02T03:24:25;100101.06;;;19.78;45.60
40075;BME280;26529;51.530;11.754;2023-05-02T03:26:55;100102.03;;;19.77;45.54
40075;BME280;26529;51.530;11.754;2023-05-02T03:29:26;100107.34;;;19.77;45.18
40075;BME280;26529;51.530;11.754;2023-05-02T03:31:52;100109.03;;;19.78;45.47
40075;BME280;26529;51.530;11.754;2023-05-02T03:34:19;100111.72;;;19.78;45.52
40075;BME280;26529;51.530;11.754;2023-05-02T03:36:47;100112.66;;;19.77;45.42
40075;BME280;26529;51.530;11.754;2023-05-02T03:39:13;100117.03;;;19.78;45.43
40075;BME280;26529;51.530;11.754;2023-05-02T03:41:39;100114.38;;;19.78;45.36
40075;BME280;26529;51.530;11.754;2023-05-02T03:44:09;100113.50;;;19.78;45.57
40075;BME280;26529;51.530;11.754;2023-05-02T03:46:35;100114.38;;;19.78;45.19
40075;BME280;26529;51.530;11.754;2023-05-02T03:49:04;100112.66;;;19.77;45.50
40075;BME280;26529;51.530;11.754;2023-05-02T03:51:30;100118.00;;;19.77;45.59
40075;BME280;26529;51.530;11.754;2023-05-02T03:53:59;100118.00;;;19.77;45.40
40075;BME280;26529;51.530;11.754;2023-05-02T03:56:26;100118.00;;;19.77;45.42
40075;BME280;26529;51.530;11.754;2023-05-02T03:59:12;100123.31;;;19.77;45.45
40075;BME280;26529;51.530;11.754;2023-05-02T04:01:38;100133.94;;;19.77;45.58
40075;BME280;26529;51.530;11.754;2023-05-02T04:04:04;100146.28;;;19.78;45.46
40075;BME280;26529;51.530;11.754;2023-05-02T04:06:34;100145.44;;;19.78;45.46
40075;BME280;26529;51.530;11.754;2023-05-02T04:09:03;100152.66;;;19.76;45.41
40075;BME280;26529;51.530;11.754;2023-05-02T04:11:36;100149.91;;;19.77;45.60
40075;BME280;26529;51.530;11.754;2023-05-02T04:14:04;100153.53;;;19.76;45.45
40075;BME280;26529;51.530;11.754;2023-05-02T04:16:29;100156.06;;;19.78;45.49
40075;BME280;26529;51.530;11.754;2023-05-02T04:18:56;100164.19;;;19.76;45.40
40075;BME280;26529;51.530;11.754;2023-05-02T04:21:24;100158.84;;;19.76;45.45
40075;BME280;26529;51.530;11.754;2023-05-02T04:23:49;100165.88;;;19.77;45.50
40075;BME280;26529;51.530;11.754;2023-05-02T04:26:15;100172.91;;;19.78;45.52
40075;BME280;26529;51.530;11.754;2023-05-02T04:28:48;100176.50;;;19.77;45.53
40075;BME280;26529;51.530;11.754;2023-05-02T04:31:15;100176.50;;;19.77;45.54
40075;BME280;26529;51.530;11.754;2023-05-02T04:33:42;100182.66;;;19.78;45.53
40075;BME280;26529;51.530;11.754;2023-05-02T04:36:08;100183.63;;;19.77;45.38
40075;BME280;26529;51.530;11.754;2023-05-02T04:38:36;100192.47;;;19.77;45.46
40075;BME280;26529;51.530;11.754;2023-05-02T04:41:01;100197.81;;;19.77;45.42
40075;BME280;26529;51.530;11.754;2023-05-02T04:43:35;100204.09;;;19.76;45.53
40075;BME280;26529;51.530;11.754;2023-05-02T04:46:01;100201.41;;;19.76;45.42
40075;BME280;26529;51.530;11.754;2023-05-02T04:48:34;100196.94;;;19.77;45.52
40075;BME280;26529;51.530;11.754;2023-05-02T04:50:59;100203.13;;;19.77;45.56
40075;BME280;26529;51.530;11.754;2023-05-02T04:53:25;100208.44;;;19.77;45.51
40075;BME280;26529;51.530;11.754;2023-05-02T04:55:52;100213.75;;;19.77;45.62
40075;BME280;26529;51.530;11.754;2023-05-02T04:58:18;100220.03;;;19.76;45.41
40075;BME280;26529;51.530;11.754;2023-05-02T05:00:48;100224.41;;;19.77;45.27
40075;BME280;26529;51.530;11.754;2023-05-02T05:03:13;100228.97;;;19.75;45.50
40075;BME280;26529;51.530;11.754;2023-05-02T05:05:39;100230.56;;;19.78;45.58
40075;BME280;26529;51.530;11.754;2023-05-02T05:08:08;100235.03;;;19.77;45.47
40075;BME280;26529;51.530;11.754;2023-05-02T05:10:36;100235.88;;;19.78;45.49
40075;BME280;26529;51.530;11.754;2023-05-02T05:13:02;100242.06;;;19.78;45.36
40075;BME280;26529;51.530;11.754;2023-05-02T05:15:29;100248.44;;;19.76;45.46
40075;BME280;26529;51.530;11.754;2023-05-02T05:17:59;100246.66;;;19.76;45.77
40075;BME280;26529;51.530;11.754;2023-05-02T05:20:24;100251.00;;;19.77;45.49
40075;BME280;26529;51.530;11.754;2023-05-02T05:22:53;100259.94;;;19.76;45.59
40075;BME280;26529;51.530;11.754;2023-05-02T05:25:20;100266.97;;;19.77;45.49
40075;BME280;26529;51.530;11.754;2023-05-02T05:27:48;100276.75;;;19.77;45.53
40075;BME280;26529;51.530;11.754;2023-05-02T05:30:14;100273.34;;;19.75;45.41
40075;BME280;26529;51.530;11.754;2023-05-02T05:32:41;100287.38;;;19.77;45.50
40075;BME280;26529;51.530;11.754;2023-05-02T05:35:07;100281.22;;;19.76;45.46
40075;BME280;26529;51.530;11.754;2023-05-02T05:37:35;100284.72;;;19.77;45.56
40075;BME280;26529;51.530;11.754;2023-05-02T05:40:07;100293.56;;;19.77;45.54
40075;BME280;26529;51.530;11.754;2023-05-02T05:42:33;100291.00;;;19.76;45.57
40075;BME280;26529;51.530;11.754;2023-05-02T05:45:03;100299.84;;;19.76;45.51
40075;BME280;26529;51.530;11.754;2023-05-02T05:47:29;100294.53;;;19.76;45.55
40075;BME280;26529;51.530;11.754;2023-05-02T05:49:55;100304.22;;;19.77;45.60
40075;BME280;26529;51.530;11.754;2023-05-02T05:52:25;100312.19;;;19.77;45.63
40075;BME280;26529;51.530;11.754;2023-05-02T05:54:53;100313.16;;;19.76;45.34
40075;BME280;26529;51.530;11.754;2023-05-02T05:57:20;100317.59;;;19.76;45.55
40075;BME280;26529;51.530;11.754;2023-05-02T05:59:47;100312.28;;;19.76;45.52
40075;BME280;26529;51.530;11.754;2023-05-02T06:02:14;100326.47;;;19.76;45.51
40075;BME280;26529;51.530;11.754;2023-05-02T06:04:40;100328.25;;;19.76;45.53
40075;BME280;26529;51.530;11.754;2023-05-02T06:07:06;100325.50;;;19.77;45.47
40075;BME280;26529;51.530;11.754;2023-05-02T06:09:32;100329.94;;;19.77;45.57
40075;BME280;26529;51.530;11.754;2023-05-02T06:11:57;100339.75;;;19.76;45.48
40075;BME280;26529;51.530;11.754;2023-05-02T06:14:23;100339.75;;;19.76;45.53
40075;BME280;26529;51.530;11.754;2023-05-02T06:16:49;100354.03;;;19.75;45.39
40075;BME280;26529;51.530;11.754;2023-05-02T06:19:15;100355.72;;;19.76;45.19
40075;BME280;26529;51.530;11.754;2023-05-02T06:21:41;100350.59;;;19.73;45.54
40075;BME280;26529;51.530;11.754;2023-05-02T06:24:06;100363.69;;;19.76;45.67
40075;BME280;26529;51.530;11.754;2023-05-02T06:26:32;100368.06;;;19.77;45.45
40075;BME280;26529;51.530;11.754;2023-05-02T06:28:58;100365.50;;;19.76;45.38
40075;BME280;26529;51.530;11.754;2023-05-02T06:31:23;100363.69;;;19.76;45.50
40075;BME280;26529;51.530;11.754;2023-05-02T06:33:49;100368.16;;;19.76;45.70
40075;BME280;26529;51.530;11.754;2023-05-02T06:36:15;100369.13;;;19.75;45.27
40075;BME280;26529;51.530;11.754;2023-05-02T06:38:41;100371.69;;;19.76;45.41
40075;BME280;26529;51.530;11.754;2023-05-02T06:41:12;100373.38;;;19.77;45.43
40075;BME280;26529;51.530;11.754;2023-05-02T06:43:39;100380.41;;;19.78;45.52
40075;BME280;26529;51.530;11.754;2023-05-02T06:46:05;100382.19;;;19.78;45.51
40075;BME280;26529;51.530;11.754;2023-05-02T06:48:30;100381.38;;;19.77;45.52
40075;BME280;26529;51.530;11.754;2023-05-02T06:50:56;100389.34;;;19.77;45.45
40075;BME280;26529;51.530;11.754;2023-05-02T06:53:22;100400.00;;;19.77;45.51
40075;BME280;26529;51.530;11.754;2023-05-02T06:55:48;100400.94;;;19.76;45.57
40075;BME280;26529;51.530;11.754;2023-05-02T06:58:13;100397.41;;;19.76;45.57
40075;BME280;26529;51.530;11.754;2023-05-02T07:00:39;100400.00;;;19.77;45.54
40075;BME280;26529;51.530;11.754;2023-05-02T07:03:05;100410.63;;;19.77;45.58
40075;BME280;26529;51.530;11.754;2023-05-02T07:05:30;100407.88;;;19.79;45.43
40075;BME280;26529;51.530;11.754;2023-05-02T07:07:56;100425.63;;;19.78;45.65
40075;BME280;26529;51.530;11.754;2023-05-02T07:10:22;100414.25;;;19.76;45.47
40075;BME280;26529;51.530;11.754;2023-05-02T07:12:47;100424.78;;;19.78;45.50
40075;BME280;26529;51.530;11.754;2023-05-02T07:15:13;100425.72;;;19.77;45.60
40075;BME280;26529;51.530;11.754;2023-05-02T07:17:40;100430.09;;;19.78;45.51
40075;BME280;26529;51.530;11.754;2023-05-02T07:20:07;100428.31;;;19.78;45.51
40075;BME280;26529;51.530;11.754;2023-05-02T07:22:33;100435.53;;;19.76;45.72
40075;BME280;26529;51.530;11.754;2023-05-02T07:25:00;100438.06;;;19.78;45.50
40075;BME280;26529;51.530;11.754;2023-05-02T07:27:26;100437.25;;;19.77;45.58
40075;BME280;26529;51.530;11.754;2023-05-02T07:29:52;100438.94;;;19.78;45.39
40075;BME280;26529;51.530;11.754;2023-05-02T07:32:19;100449.59;;;19.78;45.51
40075;BME280;26529;51.530;11.754;2023-05-02T07:34:46;100445.97;;;19.79;45.64
40075;BME280;26529;51.530;11.754;2023-05-02T07:37:12;100454.91;;;19.78;45.45
40075;BME280;26529;51.530;11.754;2023-05-02T07:39:37;100465.56;;;19.78;45.57
40075;BME280;26529;51.530;11.754;2023-05-02T07:42:03;100461.19;;;19.77;45.54
40075;BME280;26529;51.530;11.754;2023-05-02T07:44:29;100462.88;;;19.78;45.47
40075;BME280;26529;51.530;11.754;2023-05-02T07:46:54;100476.19;;;19.78;45.43
40075;BME280;26529;51.530;11.754;2023-05-02T07:49:20;100483.22;;;19.79;45.62
40075;BME280;26529;51.530;11.754;2023-05-02T07:51:45;100486.84;;;19.78;45.50
40075;BME280;26529;51.530;11.754;2023-05-02T07:54:20;100491.28;;;19.78;45.50
40075;BME280;26529;51.530;11.754;2023-05-02T07:56:46;100489.50;;;19.78;45.37
40075;BME280;26529;51.530;11.754;2023-05-02T07:59:13;100495.78;;;19.77;45.66
40075;BME280;26529;51.530;11.754;2023-05-02T08:01:40;100498.34;;;19.79;45.49
40075;BME280;26529;51.530;11.754;2023-05-02T08:04:06;100501.94;;;19.78;45.51
40075;BME280;26529;51.530;11.754;2023-05-02T08:06:32;100500.13;;;19.78;45.46
40075;BME280;26529;51.530;11.754;2023-05-02T08:08:58;100501.09;;;19.77;45.58
40075;BME280;26529;51.530;11.754;2023-05-02T08:11:24;100502.78;;;19.78;45.50
40075;BME280;26529;51.530;11.754;2023-05-02T08:13:53;100507.38;;;19.76;45.53
40075;BME280;26529;51.530;11.754;2023-05-02T08:16:19;100506.41;;;19.77;45.58
40075;BME280;26529;51.530;11.754;2023-05-02T08:18:45;100503.84;;;19.76;45.33
40075;BME280;26529;51.530;11.754;2023-05-02T08:21:11;100511.72;;;19.77;45.53
40075;BME280;26529;51.530;11.754;2023-05-02T08:23:37;100507.25;;;19.78;45.46
40075;BME280;26529;51.530;11.754;2023-05-02T08:26:03;100500.13;;;19.78;45.51
40075;BME280;26529;51.530;11.754;2023-05-02T08:28:28;100506.41;;;19.77;45.45
40075;BME280;26529;51.530;11.754;2023-05-02T08:30:55;100511.72;;;19.77;45.40
40075;BME280;26529;51.530;11.754;2023-05-02T08:33:21;100513.44;;;19.78;45.50
40075;BME280;26529;51.530;11.754;2023-05-02T08:35:47;100509.81;;;19.79;45.71
40075;BME280;26529;51.530;11.754;2023-05-02T08:38:13;100515.16;;;19.79;45.52
40075;BME280;26529;51.530;11.754;2023-05-02T08:40:38;100518.75;;;19.78;45.49
40075;BME280;26529;51.530;11.754;2023-05-02T08:43:04;100519.63;;;19.79;45.58
40075;BME280;26529;51.530;11.754;2023-05-02T08:45:34;100524.81;;;19.80;45.54
40075;BME280;26529;51.530;11.754;2023-05-02T08:48:08;100525.78;;;19.79;45.49
40075;BME280;26529;51.530;11.754;2023-05-02T08:50:41;100520.47;;;19.79;45.49
40075;BME280;26529;51.530;11.754;2023-05-02T08:53:10;100527.50;;;19.80;45.45
40075;BME280;26529;51.530;11.754;2023-05-02T08:55:37;100531.97;;;19.80;45.57
40075;BME280;26529;51.530;11.754;2023-05-02T08:58:07;100537.19;;;19.82;45.29
40075;BME280;26529;51.530;11.754;2023-05-02T09:00:41;100539.84;;;19.82;45.55
40075;BME280;26529;51.530;11.754;2023-05-02T09:03:31;100547.81;;;19.82;45.32
40075;BME280;26529;51.530;11.754;2023-05-02T09:06:12;100549.72;;;19.79;45.68
40075;BME280;26529;51.530;11.754;2023-05-02T09:08:38;100554.09;;;19.80;45.42
40075;BME280;26529;51.530;11.754;2023-05-02T09:11:08;100567.31;;;19.82;45.35
40075;BME280;26529;51.530;11.754;2023-05-02T09:13:35;100566.44;;;19.82;45.41
40075;BME280;26529;51.530;11.754;2023-05-02T09:16:03;100562.94;;;19.81;45.55
40075;BME280;26529;51.530;11.754;2023-05-02T09:18:35;100573.50;;;19.83;45.43
40075;BME280;26529;51.530;11.754;2023-05-02T09:21:04;100576.16;;;19.83;45.64
40075;BME280;26529;51.530;11.754;2023-05-02T09:26:18;100572.72;;;19.80;45.58
40075;BME280;26529;51.530;11.754;2023-05-02T09:28:48;100571.78;;;19.82;45.45
40075;BME280;26529;51.530;11.754;2023-05-02T09:31:22;100577.97;;;19.82;45.57
40075;BME280;26529;51.530;11.754;2023-05-02T09:33:51;100582.41;;;19.82;45.49
40075;BME280;26529;51.530;11.754;2023-05-02T09:36:18;100581.50;;;19.83;45.53
40075;BME280;26529;51.530;11.754;2023-05-02T09:38:45;100566.44;;;19.82;45.41
40075;BME280;26529;51.530;11.754;2023-05-02T09:41:11;100576.25;;;19.81;45.58
40075;BME280;26529;51.530;11.754;2023-05-02T09:43:37;100581.50;;;19.83;45.33
40075;BME280;26529;51.530;11.754;2023-05-02T09:46:05;100573.50;;;19.83;45.43
40075;BME280;26529;51.530;11.754;2023-05-02T09:51:18;100577.22;;;19.80;45.54
40075;BME280;26529;51.530;11.754;2023-05-02T09:53:44;100574.44;;;19.82;45.43
40075;BME280;26529;51.530;11.754;2023-05-02T09:56:09;100577.09;;;19.82;45.57
40075;BME280;26529;51.530;11.754;2023-05-02T09:58:35;100583.28;;;19.82;45.73
40075;BME280;26529;51.530;11.754;2023-05-02T10:01:01;100580.72;;;19.80;45.45
40075;BME280;26529;51.530;11.754;2023-05-02T10:03:27;100577.09;;;19.82;45.44
40075;BME280;26529;51.530;11.754;2023-05-02T10:05:54;100581.50;;;19.83;45.46
40075;BME280;26529;51.530;11.754;2023-05-02T10:08:25;100585.84;;;19.84;45.48
40075;BME280;26529;51.530;11.754;2023-05-02T10:10:53;100588.59;;;19.82;45.60
40075;BME280;26529;51.530;11.754;2023-05-02T10:13:20;100593.75;;;19.85;45.33
40075;BME280;26529;51.530;11.754;2023-05-02T10:15:50;100591.84;;;19.87;45.40
40075;BME280;26529;51.530;11.754;2023-05-02T10:18:32;100593.56;;;19.88;45.32
40075;BME280;26529;51.530;11.754;2023-05-02T10:21:02;100596.13;;;19.90;45.39
40075;BME280;26529;51.530;11.754;2023-05-02T10:23:29;100601.25;;;19.93;45.43
40075;BME280;26529;51.530;11.754;2023-05-02T10:25:58;100595.91;;;19.93;45.35
40075;BME280;26529;51.530;11.754;2023-05-02T10:28:25;100606.56;;;19.93;45.35
40075;BME280;26529;51.530;11.754;2023-05-02T10:30:52;100595.09;;;19.92;45.42
40075;BME280;26529;51.530;11.754;2023-05-02T10:33:19;100604.84;;;19.92;45.33
40075;BME280;26529;51.530;11.754;2023-05-02T10:35:45;100604.94;;;19.90;45.46
40075;BME280;26529;51.530;11.754;2023-05-02T10:38:19;100604.09;;;19.90;45.45
40075;BME280;26529;51.530;11.754;2023-05-02T10:40:49;100598.78;;;19.90;45.43
40075;BME280;26529;51.530;11.754;2023-05-02T10:43:22;100599.75;;;19.89;45.27
40075;BME280;26529;51.530;11.754;2023-05-02T10:45:49;100594.41;;;19.89;45.59
40075;BME280;26529;51.530;11.754;2023-05-02T10:48:25;100600.56;;;19.89;45.56
40075;BME280;26529;51.530;11.754;2023-05-02T10:51:00;100591.75;;;19.89;45.58
40075;BME280;26529;51.530;11.754;2023-05-02T10:53:28;100592.69;;;19.88;45.41
40075;BME280;26529;51.530;11.754;2023-05-02T10:58:39;100584.69;;;19.88;45.52
40075;BME280;26529;51.530;11.754;2023-05-02T11:03:59;100593.47;;;19.90;45.47
40075;BME280;26529;51.530;11.754;2023-05-02T11:06:25;100597.81;;;19.91;45.51
40075;BME280;26529;51.530;11.754;2023-05-02T11:08:52;100595.16;;;19.91;45.26
40075;BME280;26529;51.530;11.754;2023-05-02T11:11:37;100595.16;;;19.91;45.50
40075;BME280;26529;51.530;11.754;2023-05-02T11:14:03;100588.81;;;19.93;45.56
40075;BME280;26529;51.530;11.754;2023-05-02T11:24:52;100606.03;;;20.02;45.38
40075;BME280;26529;51.530;11.754;2023-05-02T11:30:03;100600.53;;;20.05;45.28
40075;BME280;26529;51.530;11.754;2023-05-02T11:35:20;100617.16;;;20.09;45.02
40075;BME280;26529;51.530;11.754;2023-05-02T11:37:55;100642.16;;;20.06;45.30
40075;BME280;26529;51.530;11.754;2023-05-02T11:40:21;100648.63;;;20.02;45.48
40075;BME280;26529;51.530;11.754;2023-05-02T11:42:48;100656.63;;;20.02;45.29
40075;BME280;26529;51.530;11.754;2023-05-02T11:45:13;100658.50;;;20.00;45.43
40075;BME280;26529;51.530;11.754;2023-05-02T11:47:40;100666.47;;;20.00;45.33
40075;BME280;26529;51.530;11.754;2023-05-02T11:50:07;100670.09;;;19.99;45.53
40075;BME280;26529;51.530;11.754;2023-05-02T11:52:38;100679.03;;;19.98;45.29
40075;BME280;26529;51.530;11.754;2023-05-02T11:55:10;100691.38;;;19.99;45.57
40075;BME280;26529;51.530;11.754;2023-05-02T11:57:36;100710.97;;;19.98;45.38
40075;BME280;26529;51.530;11.754;2023-05-02T12:00:03;100717.16;;;19.99;45.50
40075;BME280;26529;51.530;11.754;2023-05-02T12:02:41;100726.06;;;19.98;45.45
40075;BME280;26529;51.530;11.754;2023-05-02T12:05:09;100719.91;;;19.97;45.49
40075;BME280;26529;51.530;11.754;2023-05-02T12:07:39;100725.25;;;19.97;45.55
40075;BME280;26529;51.530;11.754;2023-05-02T12:10:06;100734.19;;;19.96;45.47
40075;BME280;26529;51.530;11.754;2023-05-02T12:12:32;100727.13;;;19.95;45.51
40075;BME280;26529;51.530;11.754;2023-05-02T12:15:11;100727.13;;;19.95;45.63
40075;BME280;26529;51.530;11.754;2023-05-02T12:17:42;100728.03;;;19.94;45.46
40075;BME280;26529;51.530;11.754;2023-05-02T12:20:08;100720.06;;;19.94;45.57
40075;BME280;26529;51.530;11.754;2023-05-02T12:22:35;100720.06;;;19.94;45.51
40075;BME280;26529;51.530;11.754;2023-05-02T12:25:01;100712.06;;;19.94;45.40
40075;BME280;26529;51.530;11.754;2023-05-02T12:27:30;100715.59;;;19.95;45.47
40075;BME280;26529;51.530;11.754;2023-05-02T12:29:59;100711.31;;;19.92;45.30
40075;BME280;26529;51.530;11.754;2023-05-02T12:32:30;100710.34;;;19.93;45.47
40075;BME280;26529;51.530;11.754;2023-05-02T12:34:56;100714.72;;;19.94;45.48
40075;BME280;26529;51.530;11.754;2023-05-02T12:37:23;100717.38;;;19.94;45.44
40075;BME280;26529;51.530;11.754;2023-05-02T12:39:50;100727.13;;;19.95;45.42
40075;BME280;26529;51.530;11.754;2023-05-02T12:42:19;100720.91;;;19.95;45.41
40075;BME280;26529;51.530;11.754;2023-05-02T12:44:46;100718.25;;;19.95;45.49
40075;BME280;26529;51.530;11.754;2023-05-02T12:47:15;100718.22;;;19.96;45.38
40075;BME280;26529;51.530;11.754;2023-05-02T12:52:21;100720.91;;;19.95;45.34
40075;BME280;26529;51.530;11.754;2023-05-02T12:54:47;100725.38;;;19.94;45.42
40075;BME280;26529;51.530;11.754;2023-05-02T12:57:23;100734.19;;;19.96;45.49
40075;BME280;26529;51.530;11.754;2023-05-02T12:59:52;100728.84;;;19.96;45.40
40075;BME280;26529;51.530;11.754;2023-05-02T13:02:19;100737.59;;;19.98;45.54
40075;BME280;26529;51.530;11.754;2023-05-02T13:04:45;100741.88;;;20.01;45.05
40075;BME280;26529;51.530;11.754;2023-05-02T13:07:11;100743.50;;;20.03;45.30
40075;BME280;26529;51.530;11.754;2023-05-02T13:09:37;100749.59;;;20.05;45.19
40075;BME280;26529;51.530;11.754;2023-05-02T13:12:03;100740.72;;;20.05;45.35
40075;BME280;26529;51.530;11.754;2023-05-02T13:14:29;100745.97;;;20.06;45.30
40075;BME280;26529;51.530;11.754;2023-05-02T13:16:55;100737.22;;;20.04;45.21
40075;BME280;26529;51.530;11.754;2023-05-02T13:19:21;100738.25;;;20.02;45.38
40075;BME280;26529;51.530;11.754;2023-05-02T13:21:47;100739.13;;;20.02;45.33
40075;BME280;26529;51.530;11.754;2023-05-02T13:24:13;100744.53;;;20.01;45.52
40075;BME280;26529;51.530;11.754;2023-05-02T13:26:40;100742.72;;;20.01;45.45
40075;BME280;26529;51.530;11.754;2023-05-02T13:29:06;100742.72;;;20.01;45.47
40075;BME280;26529;51.530;11.754;2023-05-02T13:31:34;100746.34;;;20.00;45.40